Morris, Minnesota
Current Conditions -  °F | °C
As of 1:45 AM on Wednesday 22 Oct 2014 (Local Time) from KMOX Reporting Station
Clear Clear  
Wind Chill: 42°   Ceiling: Unl
Heat Index: 48°   Visibility: 10mi
Dew Point: 41°   Wind: 16mph
Humidity: 76%   Direction: 140°SE
Pressure: 30"   Gusts: 21mph
Location:  45.59°N, 95.91°W
Report Text: KMOX 220645Z AUTO 14014G18KT 10SM CLR 09/05 A3000 RMK AO2
Loading
Personal Weather Stations






























Interactive Weather Map
Tropical Storm Tracking
New forecast layout! Learn more

10-Day Weather Forecast

Advertisements
Track Severe Weather on mobile